Airfield :







YOU CAN JOIN US ON...

 
LOGIN :

Register | Disclaimer

   EN    FR    IT 

 









Legend :    VFR   Marginal VFR   IFR   Intensive IFR   Very Intensive IFR
Visi :
Ceiling :
>= 8 km
>= 3000ft
5 to 8 km
1000 to 3000 ft
1500m to 5 km
500 to 1000 ft
800 to 1500m
200 to 500 ft
< 800m
< 200 ft
Symbols :   Thunderstorms  Fog  Heavy snow  Heavy precipitations  Wind > 20 kt






- Airport Elevation : 90 ft
- IATA code : YHU


CYHU - Montréal Saint-Hubert

CURRENT METAR :
  • 261900Z AUTO 23012G17KT 9SM -RA OVC013 02/00 A2956 RMK SLP012

EXPIRED METARs :
  • 261800Z AUTO 24013KT 9SM -RA OVC011 01/00 A2958 RMK SLP018
  • 261736Z AUTO 24011G17KT 6SM -RA BR BKN011 OVC015 01/00 A2959 RMK SLP021
  • 261719Z AUTO 24012G19KT 5SM -RA BR BKN011 OVC016 01/00 A2959 RMK SLP022
  • 261700Z AUTO 24014G20KT 4SM -RA BR BKN009 OVC016 02/00 A2959 RMK SLP024

TAF TAF CYHU
Valid from the 26 at 18:00 until the 27 at 18:00 UTC


261740Z 2618/2718 24012G22KT 4SM -SHRA BR OVC008
TEMPO 2618/2704 P6SM -RA OVC010
FM270400 26010KT 5SM -SHSN -SHSNRA BR OVC006
FM271700 27012KT 5SM -SHSNRA BR BKN020 OVC050 RMK FCST BASED ON AUTO OBS. NXT FCST BY 270000Z



MET'MAP, your aeronautical weather chart ! - Copyright ORBIFLY December 2007 - Disclaimer

ORBIFLY MET'MAP TEAM :

Programming & Development : Alexandra Zaïnal
Concept & original design : Baudouin d'Aumeries
Assistance for programming : Marc-Olivier Méhu
Technical & hardware support : Manuel Goepfert

Contact : metmap@orbifly.com




SOURCES & CREDITS :

   NOAA